Time;durP1;ratioP1;P1;durP2;ratioP2;P2;SDS_P1;SDS_P2;PMS_P1;PMS_P2;Temp;Humidity;BMP_temperature;BMP_pressure;BME280_temperature;BME280_humidity;BME280_pressure;Samples;Min_cycle;Max_cycle;Signal;HPM_P1;HPM_P2
2022/03/06 00:01:47;;;;;;;16.50;12.80;;;;;;;0.44;60.51;96629.22;5116748;28;20313;-53
2022/03/06 00:04:14;;;;;;;15.63;12.17;;;;;;;0.48;60.32;96612.53;5114777;28;20252;-52
2022/03/06 00:06:41;;;;;;;20.03;13.20;;;;;;;0.47;59.07;96612.59;5114238;28;20207;-54
2022/03/06 00:09:08;;;;;;;17.13;11.87;;;;;;;0.54;59.67;96616.56;5114260;28;20210;-51
2022/03/06 00:11:36;;;;;;;18.20;12.83;;;;;;;0.33;59.73;96618.53;5116267;28;20217;-53
2022/03/06 00:14:03;;;;;;;17.63;13.47;;;;;;;0.30;61.13;96616.13;5117778;28;20251;-51
2022/03/06 00:16:29;;;;;;;18.27;12.53;;;;;;;0.42;61.11;96619.84;5122802;28;20214;-50
2022/03/06 00:18:56;;;;;;;19.57;12.97;;;;;;;0.34;61.12;96616.78;5124241;28;20202;-51
2022/03/06 00:21:22;;;;;;;18.20;13.13;;;;;;;0.28;60.68;96612.78;5122624;28;20223;-49
2022/03/06 00:23:49;;;;;;;17.73;12.47;;;;;;;0.30;60.33;96612.66;5117174;28;20194;-50
2022/03/06 00:26:16;;;;;;;18.60;14.33;;;;;;;0.33;60.14;96610.75;5116763;28;20210;-50
2022/03/06 00:28:43;;;;;;;20.00;15.33;;;;;;;0.22;61.37;96614.84;5116955;28;20533;-50
2022/03/06 00:31:10;;;;;;;20.23;14.50;;;;;;;0.14;61.55;96614.41;5116902;28;20212;-49
2022/03/06 00:33:37;;;;;;;17.23;12.13;;;;;;;0.13;61.80;96623.97;5116943;28;20204;-50
2022/03/06 00:36:04;;;;;;;21.40;12.90;;;;;;;0.17;61.10;96615.09;5116887;28;20210;-48
2022/03/06 00:38:30;;;;;;;17.43;12.97;;;;;;;0.14;62.06;96614.41;5116584;28;20221;-49
2022/03/06 00:40:57;;;;;;;18.03;12.37;;;;;;;0.13;62.61;96617.94;5117379;28;20586;-53
2022/03/06 00:43:23;;;;;;;21.17;14.77;;;;;;;0.11;62.43;96620.59;5116622;28;20206;-54
2022/03/06 00:45:51;;;;;;;19.43;13.70;;;;;;;0.07;61.64;96616.50;5117729;28;20206;-53
2022/03/06 00:48:18;;;;;;;19.10;13.03;;;;;;;0.13;61.37;96623.13;5117766;28;20202;-50
2022/03/06 00:50:45;;;;;;;20.73;14.33;;;;;;;0.08;61.87;96617.31;5117601;28;20202;-51
2022/03/06 00:53:11;;;;;;;20.70;13.83;;;;;;;0.03;61.80;96617.59;5124211;28;20230;-52
2022/03/06 00:55:38;;;;;;;18.70;13.20;;;;;;;0.02;61.96;96622.84;5125135;28;20218;-54
2022/03/06 00:58:06;;;;;;;19.70;13.70;;;;;;;-0.03;62.36;96629.13;5135526;28;20204;-52
2022/03/06 01:00:35;;;;;;;19.70;13.73;;;;;;;-0.05;61.33;96624.94;5137596;28;20208;-50
2022/03/06 01:03:04;;;;;;;19.10;13.47;;;;;;;-0.06;61.68;96626.69;5135052;28;20232;-51
2022/03/06 01:05:30;;;;;;;21.50;13.90;;;;;;;-0.08;62.48;96623.34;5127283;28;20205;-51
2022/03/06 01:07:57;;;;;;;22.20;14.63;;;;;;;-0.18;62.45;96619.50;5121489;28;20208;-51
2022/03/06 01:10:23;;;;;;;18.70;13.80;;;;;;;-0.22;63.42;96618.00;5121754;28;20200;-51
2022/03/06 01:12:54;;;;;;;16.90;13.13;;;;;;;-0.30;64.39;96624.50;5122524;28;20203;-52
2022/03/06 01:15:21;;;;;;;20.73;14.27;;;;;;;-0.23;64.26;96607.69;5121523;28;20223;-51
2022/03/06 01:17:48;;;;;;;19.93;13.90;;;;;;;-0.20;63.61;96616.16;5119806;28;20209;-53
2022/03/06 01:20:17;;;;;;;18.70;14.00;;;;;;;-0.26;63.94;96619.06;5118534;28;20281;-53
2022/03/06 01:22:44;;;;;;;19.80;13.60;;;;;;;-0.19;64.05;96620.44;5122202;28;20201;-52
2022/03/06 01:25:10;;;;;;;22.07;14.47;;;;;;;-0.15;63.11;96614.19;5120090;28;20641;-50
2022/03/06 01:27:37;;;;;;;21.93;15.17;;;;;;;-0.22;63.30;96615.41;5115514;28;20562;-51
2022/03/06 01:30:06;;;;;;;21.00;15.03;;;;;;;-0.18;63.38;96614.31;5113738;28;20241;-56
2022/03/06 01:32:33;;;;;;;18.07;13.73;;;;;;;-0.11;63.31;96614.84;5113794;28;20631;-55
2022/03/06 01:35:00;;;;;;;22.63;15.60;;;;;;;-0.15;64.91;96618.53;5115052;27;20232;-52
2022/03/06 01:37:28;;;;;;;19.50;13.87;;;;;;;-0.12;63.21;96613.16;5115445;28;20200;-54
2022/03/06 01:39:54;;;;;;;22.03;15.07;;;;;;;-0.14;62.43;96612.38;5114781;28;20220;-50
2022/03/06 01:42:21;;;;;;;18.97;13.73;;;;;;;-0.25;62.07;96610.34;5112250;28;20212;-51
2022/03/06 01:44:50;;;;;;;21.37;15.13;;;;;;;-0.25;63.02;96607.75;5111893;28;20521;-50
2022/03/06 01:47:35;;;;;;;20.27;14.40;;;;;;;-0.27;63.01;96609.59;5111583;28;20202;-49
2022/03/06 01:50:02;;;;;;;22.03;14.43;;;;;;;-0.40;63.19;96605.09;5111391;28;20204;-50
2022/03/06 01:52:31;;;;;;;22.57;14.77;;;;;;;-0.52;64.34;96607.41;5112327;28;20210;-52
2022/03/06 01:54:58;;;;;;;20.60;15.13;;;;;;;-0.49;64.09;96609.00;5110393;28;20230;-50
2022/03/06 01:57:26;;;;;;;19.83;14.07;;;;;;;-0.37;64.18;96607.53;5112908;28;20204;-50
2022/03/06 01:59:53;;;;;;;19.80;13.97;;;;;;;-0.46;63.02;96598.44;5113855;28;20201;-49
2022/03/06 02:02:19;;;;;;;18.20;13.73;;;;;;;-0.56;63.42;96600.66;5113100;28;20232;-51
2022/03/06 02:04:46;;;;;;;22.77;14.40;;;;;;;-0.57;63.70;96601.56;5112182;28;20200;-51
2022/03/06 02:07:13;;;;;;;21.60;14.50;;;;;;;-0.60;63.75;96600.88;5111668;28;20205;-49
2022/03/06 02:09:41;;;;;;;18.33;13.53;;;;;;;-0.60;63.50;96593.09;5112026;28;20206;-49
2022/03/06 02:14:54;;;;;;;23.03;14.70;;;;;;;-0.70;65.03;96597.91;5111548;28;20552;-50
2022/03/06 02:17:21;;;;;;;16.73;12.77;;;;;;;-0.56;64.71;96597.22;5112002;28;20232;-50
2022/03/06 02:19:55;;;;;;;19.90;14.10;;;;;;;-0.49;65.08;96598.59;5112050;28;20197;-50
2022/03/06 02:22:24;;;;;;;20.80;14.67;;;;;;;-0.59;65.30;96607.78;5112216;28;20217;-48
2022/03/06 02:24:51;;;;;;;22.30;14.87;;;;;;;-0.55;64.45;96598.91;5111103;28;20209;-49
2022/03/06 02:27:18;;;;;;;19.27;13.70;;;;;;;-0.59;65.38;96603.44;5111783;28;20220;-50
2022/03/06 02:29:45;;;;;;;20.47;14.13;;;;;;;-0.58;64.00;96604.28;5111563;28;20209;-51
2022/03/06 02:32:13;;;;;;;20.97;14.07;;;;;;;-0.63;64.80;96601.03;5112274;28;20216;-48
2022/03/06 02:34:42;;;;;;;17.77;13.43;;;;;;;-0.60;64.77;96603.47;5111815;28;20577;-49
2022/03/06 02:37:08;;;;;;;20.30;14.23;;;;;;;-0.64;64.71;96609.78;5118614;28;20201;-49
2022/03/06 02:39:39;;;;;;;19.10;14.10;;;;;;;-0.60;64.83;96606.94;5132606;28;20202;-50
2022/03/06 02:42:06;;;;;;;21.20;14.43;;;;;;;-0.60;64.58;96595.69;5131803;28;20194;-50
2022/03/06 02:44:33;;;;;;;22.20;14.83;;;;;;;-0.72;65.21;96602.38;5114569;28;20204;-49
2022/03/06 02:47:02;;;;;;;20.33;14.30;;;;;;;-0.76;64.93;96605.19;5112120;28;20201;-49
2022/03/06 02:49:29;;;;;;;20.73;13.80;;;;;;;-0.75;65.67;96606.88;5112353;28;20552;-49
2022/03/06 02:51:56;;;;;;;19.33;13.93;;;;;;;-0.69;64.96;96609.16;5116180;28;20203;-49
2022/03/06 02:54:23;;;;;;;20.33;14.13;;;;;;;-0.68;65.22;96608.25;5134099;28;20205;-50
2022/03/06 02:56:51;;;;;;;19.30;14.20;;;;;;;-0.63;65.32;96611.44;5130860;28;20527;-50
2022/03/06 02:59:17;;;;;;;19.00;13.63;;;;;;;-0.68;64.89;96616.88;5110489;28;20269;-48
2022/03/06 03:01:44;;;;;;;19.00;14.40;;;;;;;-0.74;64.53;96613.72;5110822;28;20288;-49
2022/03/06 03:04:14;;;;;;;21.37;13.83;;;;;;;-0.74;64.47;96624.94;5113662;28;20205;-50
2022/03/06 03:06:40;;;;;;;19.03;13.83;;;;;;;-0.78;65.23;96625.19;5114989;28;20211;-50
2022/03/06 03:09:08;;;;;;;23.23;14.73;;;;;;;-0.82;65.69;96621.91;5114757;28;20567;-49
2022/03/06 03:11:35;;;;;;;18.27;13.73;;;;;;;-0.91;65.79;96624.09;5115152;28;20209;-50
2022/03/06 03:14:04;;;;;;;22.47;13.40;;;;;;;-0.86;65.93;96619.53;5115036;28;20223;-48
2022/03/06 03:16:30;;;;;;;16.27;13.23;;;;;;;-0.91;66.52;96624.09;5114887;28;20239;-50
2022/03/06 03:18:57;;;;;;;19.60;14.50;;;;;;;-0.97;66.56;96622.63;5124203;28;20188;-50
2022/03/06 03:21:23;;;;;;;18.57;13.73;;;;;;;-0.95;67.29;96619.97;5138610;28;20200;-51
2022/03/06 03:23:49;;;;;;;17.10;13.07;;;;;;;-0.99;66.34;96623.63;5134150;28;20303;-51
2022/03/06 03:26:16;;;;;;;18.37;12.97;;;;;;;-1.05;66.24;96633.38;5124473;28;20560;-50
2022/03/06 03:28:43;;;;;;;18.33;13.83;;;;;;;-1.01;66.62;96632.31;5115117;28;20579;-48
2022/03/06 03:31:12;;;;;;;20.00;13.70;;;;;;;-0.96;67.18;96628.69;5114704;28;20201;-49
2022/03/06 03:33:39;;;;;;;20.60;13.50;;;;;;;-0.96;66.91;96628.69;5114579;28;20213;-48
2022/03/06 03:36:06;;;;;;;16.90;13.27;;;;;;;-1.05;66.92;96630.78;5114251;28;20236;-52
2022/03/06 03:38:33;;;;;;;19.33;13.90;;;;;;;-1.10;66.92;96627.56;5114573;28;20573;-50
2022/03/06 03:41:01;;;;;;;19.60;13.23;;;;;;;-1.08;67.01;96625.75;5114501;28;20216;-49
2022/03/06 03:43:28;;;;;;;17.60;13.57;;;;;;;-1.13;67.72;96632.91;5114444;28;20269;-50
2022/03/06 03:45:57;;;;;;;19.50;13.37;;;;;;;-1.07;67.64;96631.78;5114334;28;20589;-50
2022/03/06 03:48:25;;;;;;;20.87;14.33;;;;;;;-1.06;67.83;96638.63;5114442;28;20223;-50
2022/03/06 03:50:52;;;;;;;19.10;13.67;;;;;;;-1.02;67.39;96635.81;5114204;28;20205;-50
2022/03/06 03:53:19;;;;;;;19.63;13.07;;;;;;;-1.03;68.15;96639.31;5114626;28;20594;-51
2022/03/06 03:55:46;;;;;;;20.33;13.40;;;;;;;-1.05;67.69;96635.13;5111552;28;20679;-50
2022/03/06 03:58:12;;;;;;;17.83;13.87;;;;;;;-1.10;67.82;96643.13;5114167;28;20647;-50
2022/03/06 04:00:39;;;;;;;17.77;13.03;;;;;;;-1.03;67.68;96643.72;5114060;28;20866;-50
2022/03/06 04:03:06;;;;;;;22.77;14.30;;;;;;;-1.09;67.02;96649.16;5113966;28;20229;-52
2022/03/06 04:05:34;;;;;;;18.37;13.10;;;;;;;-1.18;68.71;96647.00;5115013;28;20195;-51
2022/03/06 04:08:00;;;;;;;19.40;13.43;;;;;;;-1.31;69.58;96645.91;5114532;28;20205;-51
2022/03/06 04:10:28;;;;;;;21.07;14.17;;;;;;;-1.15;68.67;96649.47;5115412;28;20204;-49
2022/03/06 04:12:55;;;;;;;18.90;13.37;;;;;;;-1.16;69.24;96647.78;5125261;28;20211;-52
2022/03/06 04:15:22;;;;;;;21.73;13.87;;;;;;;-1.20;68.70;96643.63;5131272;28;20316;-52
2022/03/06 04:17:49;;;;;;;19.73;14.40;;;;;;;-1.28;68.40;96648.38;5131762;28;20196;-56
2022/03/06 04:20:15;;;;;;;18.73;13.63;;;;;;;-1.18;67.83;96642.66;5113904;28;20597;-50
2022/03/06 04:22:43;;;;;;;19.07;13.30;;;;;;;-1.25;69.70;96638.69;5113711;28;20222;-51
2022/03/06 04:25:10;;;;;;;19.37;13.60;;;;;;;-1.22;69.60;96643.72;5112141;28;20200;-49
2022/03/06 04:27:36;;;;;;;19.30;13.97;;;;;;;-1.22;68.98;96642.88;5113304;28;20243;-51
2022/03/06 04:30:04;;;;;;;20.73;14.13;;;;;;;-1.31;70.03;96646.72;5113174;28;20252;-50
2022/03/06 04:32:31;;;;;;;20.83;14.33;;;;;;;-1.26;68.42;96660.34;5112101;28;20816;-49
2022/03/06 04:34:57;;;;;;;20.73;13.70;;;;;;;-1.25;67.99;96658.59;5107716;28;20212;-49
2022/03/06 04:37:24;;;;;;;19.77;13.63;;;;;;;-1.30;68.96;96666.56;5111611;28;20209;-49
2022/03/06 04:39:52;;;;;;;20.87;13.80;;;;;;;-1.21;69.02;96665.31;5113393;28;20241;-51
2022/03/06 04:42:19;;;;;;;17.80;13.30;;;;;;;-1.31;68.66;96662.28;5113812;28;20641;-50
2022/03/06 04:44:45;;;;;;;17.60;13.57;;;;;;;-1.34;69.42;96666.78;5127717;28;20186;-50
2022/03/06 04:47:11;;;;;;;17.40;12.80;;;;;;;-1.36;68.98;96666.88;5136125;28;20204;-49
2022/03/06 04:49:39;;;;;;;18.27;13.53;;;;;;;-1.25;68.74;96671.56;5137899;28;20192;-51
2022/03/06 04:52:06;;;;;;;16.63;12.73;;;;;;;-1.24;69.00;96670.66;5113291;28;20209;-50
2022/03/06 04:54:33;;;;;;;18.63;14.30;;;;;;;-1.23;69.36;96667.97;5112637;28;20633;-50
2022/03/06 04:57:01;;;;;;;20.40;13.53;;;;;;;-1.30;68.46;96666.56;5113080;28;20254;-49
2022/03/06 04:59:29;;;;;;;20.50;14.57;;;;;;;-1.27;68.75;96658.66;5112791;28;20212;-50
2022/03/06 05:01:56;;;;;;;18.93;14.07;;;;;;;-1.24;68.97;96658.50;5112650;28;20244;-50
2022/03/06 05:04:23;;;;;;;18.77;13.50;;;;;;;-1.29;68.75;96672.63;5113068;28;20204;-50
2022/03/06 05:06:49;;;;;;;19.03;12.77;;;;;;;-1.24;69.06;96657.69;5113233;28;20198;-51
2022/03/06 05:09:16;;;;;;;17.73;13.20;;;;;;;-1.21;68.41;96667.91;5113614;28;20224;-50
2022/03/06 05:11:42;;;;;;;21.37;14.13;;;;;;;-1.25;68.73;96658.59;5112743;28;20213;-49
2022/03/06 05:14:10;;;;;;;18.57;13.53;;;;;;;-1.22;67.86;96663.63;5112566;28;20197;-49
2022/03/06 05:16:37;;;;;;;17.90;12.90;;;;;;;-1.21;68.43;96660.97;5113143;28;20549;-49
2022/03/06 05:19:03;;;;;;;18.03;13.03;;;;;;;-1.22;68.07;96659.28;5111945;28;20209;-51
2022/03/06 05:21:30;;;;;;;16.27;12.53;;;;;;;-1.31;68.48;96659.69;5113037;28;20346;-49
2022/03/06 05:23:56;;;;;;;20.07;14.33;;;;;;;-1.25;68.77;96658.59;5112665;28;20308;-54
2022/03/06 05:26:23;;;;;;;18.33;13.80;;;;;;;-1.23;69.26;96661.94;5111406;28;20198;-50
2022/03/06 05:28:49;;;;;;;17.77;13.83;;;;;;;-1.26;69.36;96668.13;5112925;28;20214;-50
2022/03/06 05:31:18;;;;;;;19.33;13.87;;;;;;;-1.24;69.18;96666.28;5112942;28;20625;-51
2022/03/06 05:33:45;;;;;;;17.63;13.43;;;;;;;-1.25;68.64;96669.81;5112322;28;20654;-49
2022/03/06 05:36:11;;;;;;;18.10;13.57;;;;;;;-1.27;68.83;96671.63;5112819;28;20231;-51
2022/03/06 05:38:38;;;;;;;17.67;13.23;;;;;;;-1.26;69.08;96673.31;5112499;28;20201;-51
2022/03/06 05:41:04;;;;;;;21.33;14.87;;;;;;;-1.34;69.67;96670.22;5112654;28;20202;-52
2022/03/06 05:43:31;;;;;;;18.37;13.40;;;;;;;-1.40;69.79;96669.66;5112988;28;20243;-51
2022/03/06 05:45:58;;;;;;;18.47;13.33;;;;;;;-1.32;69.26;96668.41;5127296;28;20201;-51
2022/03/06 05:48:26;;;;;;;19.37;13.47;;;;;;;-1.36;69.58;96679.00;5127515;28;20211;-52
2022/03/06 05:50:53;;;;;;;20.20;14.07;;;;;;;-1.41;69.72;96673.16;5128108;28;20196;-51
2022/03/06 05:53:20;;;;;;;19.50;13.77;;;;;;;-1.40;70.43;96680.03;5114961;28;20206;-50
2022/03/06 05:55:47;;;;;;;20.53;14.33;;;;;;;-1.54;70.20;96685.84;5113126;28;20312;-51
2022/03/06 05:58:13;;;;;;;16.77;13.17;;;;;;;-1.44;70.76;96684.53;5113209;28;20249;-50
2022/03/06 06:00:39;;;;;;;19.37;13.40;;;;;;;-1.44;71.61;96686.28;5113752;28;20659;-52
2022/03/06 06:03:06;;;;;;;19.50;13.63;;;;;;;-1.42;70.83;96693.09;5114244;28;20240;-52
2022/03/06 06:05:35;;;;;;;17.97;13.00;;;;;;;-1.49;69.77;96694.28;5113726;28;20219;-51
2022/03/06 06:08:01;;;;;;;19.03;14.30;;;;;;;-1.50;69.54;96695.19;5112172;28;20219;-50
2022/03/06 06:10:28;;;;;;;19.03;13.70;;;;;;;-1.43;70.55;96695.75;5113224;28;20231;-50
2022/03/06 06:12:54;;;;;;;18.67;13.07;;;;;;;-1.43;70.03;96704.38;5112582;28;20214;-50
2022/03/06 06:15:21;;;;;;;20.00;13.80;;;;;;;-1.31;69.91;96695.19;5112170;28;20207;-50
2022/03/06 06:17:48;;;;;;;17.70;13.27;;;;;;;-1.36;70.36;96703.19;5111863;28;20227;-49
2022/03/06 06:20:14;;;;;;;19.60;13.73;;;;;;;-1.29;71.42;96699.41;5112219;28;20519;-52
2022/03/06 06:22:42;;;;;;;17.83;13.73;;;;;;;-1.18;69.50;96706.69;5112908;28;21476;-51
2022/03/06 06:25:09;;;;;;;22.60;13.53;;;;;;;-1.12;70.89;96696.88;5113362;28;20746;-52
2022/03/06 06:27:36;;;;;;;18.97;14.10;;;;;;;-1.07;70.74;96705.28;5112467;28;20207;-52
2022/03/06 06:30:04;;;;;;;19.00;14.20;;;;;;;-1.06;70.96;96704.34;5112554;28;20207;-52
2022/03/06 06:32:31;;;;;;;23.50;14.13;;;;;;;-1.01;70.14;96710.19;5112911;28;20219;-51
2022/03/06 06:35:04;;;;;;;18.40;13.67;;;;;;;-1.02;70.16;96708.50;5112640;28;20203;-51
2022/03/06 06:37:30;;;;;;;25.40;14.87;;;;;;;-1.01;69.57;96699.81;5113939;28;20220;-51
2022/03/06 06:39:58;;;;;;;19.97;14.57;;;;;;;-0.91;70.23;96699.34;5116897;28;20220;-52
2022/03/06 06:42:25;;;;;;;18.80;14.07;;;;;;;-0.81;69.02;96708.38;5116925;28;20213;-51
2022/03/06 06:44:51;;;;;;;19.60;14.13;;;;;;;-0.73;68.62;96714.06;5116756;27;20201;-50
2022/03/06 06:47:17;;;;;;;20.30;13.67;;;;;;;-0.71;68.55;96707.06;5116930;28;20227;-50
2022/03/06 06:49:44;;;;;;;20.33;13.83;;;;;;;-0.52;68.24;96719.06;5116558;28;20205;-52
2022/03/06 06:52:10;;;;;;;17.83;13.23;;;;;;;-0.43;67.22;96720.41;5116746;28;20211;-50
2022/03/06 06:54:38;;;;;;;19.80;14.17;;;;;;;-0.45;67.32;96719.63;5117628;28;20209;-50
2022/03/06 06:57:06;;;;;;;20.03;14.57;;;;;;;-0.52;68.24;96713.88;5117366;28;20240;-53
2022/03/06 06:59:32;;;;;;;19.10;13.70;;;;;;;-0.47;68.66;96711.06;5117057;28;20206;-52
2022/03/06 07:01:59;;;;;;;19.67;14.57;;;;;;;-0.51;67.41;96720.78;5116450;28;20245;-50
2022/03/06 07:04:25;;;;;;;21.30;14.77;;;;;;;-0.39;65.64;96716.72;5116171;28;20644;-52
2022/03/06 07:06:52;;;;;;;20.07;14.17;;;;;;;-0.36;67.46;96719.19;5116828;28;20198;-52
2022/03/06 07:09:18;;;;;;;19.40;14.23;;;;;;;-0.25;67.09;96716.88;5115137;28;20198;-52
2022/03/06 07:11:45;;;;;;;17.90;13.80;;;;;;;-0.28;66.14;96714.44;5114611;28;20207;-51
2022/03/06 07:14:13;;;;;;;21.43;14.57;;;;;;;-0.04;66.66;96715.81;5114418;28;20203;-52
2022/03/06 07:16:39;;;;;;;19.27;13.77;;;;;;;0.12;65.73;96717.63;5114693;28;20763;-52
2022/03/06 07:19:06;;;;;;;18.83;14.27;;;;;;;0.11;65.70;96718.56;5116615;28;20277;-50
2022/03/06 07:21:32;;;;;;;20.73;13.70;;;;;;;0.16;65.07;96713.97;5115034;28;20205;-50
2022/03/06 07:23:59;;;;;;;17.77;13.90;;;;;;;0.04;63.65;96707.63;5114987;28;20228;-51
2022/03/06 07:26:25;;;;;;;18.53;14.10;;;;;;;0.29;63.99;96712.41;5114786;28;21280;-52
2022/03/06 07:28:52;;;;;;;20.37;14.10;;;;;;;0.38;64.44;96717.16;5113629;28;20229;-52
2022/03/06 07:31:20;;;;;;;18.07;13.20;;;;;;;0.44;63.70;96711.63;5114114;28;20295;-51
2022/03/06 07:33:47;;;;;;;19.10;13.93;;;;;;;0.51;64.01;96707.78;5114925;28;20224;-52
2022/03/06 07:36:13;;;;;;;18.57;13.40;;;;;;;0.66;63.49;96717.38;5113565;28;20213;-50
2022/03/06 07:38:41;;;;;;;21.87;15.33;;;;;;;0.50;62.20;96711.28;5113366;28;20209;-52
2022/03/06 07:41:08;;;;;;;19.10;14.33;;;;;;;0.63;63.11;96722.75;5115642;28;20197;-51
2022/03/06 07:43:35;;;;;;;18.90;14.00;;;;;;;0.68;63.91;96715.53;5115053;28;20272;-51
2022/03/06 07:46:02;;;;;;;18.13;13.73;;;;;;;0.70;62.28;96718.91;5114938;28;20269;-51
2022/03/06 07:48:30;;;;;;;20.67;13.90;;;;;;;0.77;63.06;96711.63;5113437;28;20230;-50
2022/03/06 07:50:56;;;;;;;18.20;14.13;;;;;;;0.94;62.92;96717.59;5124495;28;20198;-51
2022/03/06 07:53:23;;;;;;;19.13;14.70;;;;;;;0.84;62.73;96711.22;5114901;28;20220;-52
2022/03/06 07:55:53;;;;;;;16.10;12.97;;;;;;;0.81;61.79;96719.19;5114533;28;20197;-50
2022/03/06 07:58:20;;;;;;;20.63;14.50;;;;;;;0.82;63.62;96722.59;5113970;28;20205;-50
2022/03/06 08:00:46;;;;;;;17.10;12.97;;;;;;;0.96;62.44;96717.50;5113787;28;20545;-52
2022/03/06 08:03:13;;;;;;;19.83;14.17;;;;;;;1.05;62.80;96722.22;5114655;28;20202;-53
2022/03/06 08:05:42;;;;;;;17.17;13.10;;;;;;;0.96;61.93;96720.94;5115664;28;20209;-50
2022/03/06 08:08:09;;;;;;;23.43;14.53;;;;;;;1.13;62.31;96722.66;5117662;28;20313;-52
2022/03/06 08:10:36;;;;;;;19.20;14.60;;;;;;;1.11;61.61;96727.09;5126736;28;20203;-50
2022/03/06 08:13:03;;;;;;;19.83;14.30;;;;;;;1.03;61.92;96733.66;5130430;28;21217;-50
2022/03/06 08:15:29;;;;;;;19.20;13.87;;;;;;;0.99;62.24;96741.59;5136030;28;20183;-52
2022/03/06 08:17:56;;;;;;;19.27;14.63;;;;;;;0.87;61.99;96750.09;5125633;28;20253;-52
2022/03/06 08:20:22;;;;;;;19.33;14.10;;;;;;;1.05;62.80;96755.22;5115520;28;20515;-52
2022/03/06 08:22:51;;;;;;;17.67;13.30;;;;;;;1.08;62.58;96748.09;5114959;28;20203;-50
2022/03/06 08:25:20;;;;;;;18.50;13.33;;;;;;;1.15;62.64;96751.19;5113821;28;20206;-51
2022/03/06 08:27:46;;;;;;;19.23;14.23;;;;;;;1.14;62.47;96752.09;5114045;28;20205;-51
2022/03/06 08:30:13;;;;;;;19.30;14.17;;;;;;;1.18;62.27;96758.84;5128202;28;20218;-51
2022/03/06 08:32:41;;;;;;;19.30;13.70;;;;;;;1.21;62.78;96756.06;5137014;28;20172;-58
2022/03/06 08:35:09;;;;;;;18.33;14.00;;;;;;;1.27;62.23;96760.97;5136075;28;20174;-51
2022/03/06 08:37:36;;;;;;;20.87;14.83;;;;;;;1.11;62.51;96757.50;5115030;28;20222;-51
2022/03/06 08:40:08;;;;;;;19.93;14.03;;;;;;;1.35;62.18;96748.34;5114381;28;20291;-52
2022/03/06 08:42:36;;;;;;;19.53;14.67;;;;;;;1.35;62.13;96749.19;5115068;28;20209;-52
2022/03/06 08:45:03;;;;;;;18.70;14.17;;;;;;;1.38;61.24;96735.97;5114431;28;20214;-52
2022/03/06 08:47:32;;;;;;;19.70;14.53;;;;;;;1.21;61.83;96756.91;5115018;28;20210;-51
2022/03/06 08:49:58;;;;;;;18.57;13.93;;;;;;;1.42;61.93;96740.09;5113887;28;20227;-51
2022/03/06 08:52:25;;;;;;;19.73;14.70;;;;;;;1.41;61.07;96742.81;5114291;28;20639;-50
2022/03/06 08:54:52;;;;;;;18.50;14.23;;;;;;;1.61;61.21;96750.34;5113732;27;20204;-51
2022/03/06 08:57:20;;;;;;;18.90;14.53;;;;;;;1.38;61.54;96751.59;5111706;28;20320;-52
2022/03/06 08:59:47;;;;;;;17.53;13.93;;;;;;;1.54;61.28;96754.22;5112125;28;20208;-52
2022/03/06 09:02:15;;;;;;;18.87;13.93;;;;;;;1.65;61.56;96745.78;5112586;28;20580;-52
2022/03/06 09:04:42;;;;;;;18.23;13.90;;;;;;;1.81;60.56;96750.03;5112479;28;20204;-51
2022/03/06 09:07:08;;;;;;;18.63;13.90;;;;;;;1.88;60.65;96753.13;5112527;28;20549;-51
2022/03/06 09:09:35;;;;;;;22.17;15.37;;;;;;;2.00;60.36;96755.91;5112527;28;20259;-54
2022/03/06 09:12:01;;;;;;;20.53;14.73;;;;;;;2.09;59.50;96751.09;5113128;28;20205;-53
2022/03/06 09:14:31;;;;;;;17.53;14.50;;;;;;;1.95;59.11;96757.06;5112865;28;20208;-50
2022/03/06 09:16:58;;;;;;;20.80;15.20;;;;;;;2.26;59.28;96748.34;5111651;28;20702;-53
2022/03/06 09:19:25;;;;;;;22.20;15.90;;;;;;;2.47;58.88;96757.50;5112557;28;20221;-51
2022/03/06 09:21:53;;;;;;;19.20;14.87;;;;;;;3.00;57.82;96747.28;5112267;28;20214;-51
2022/03/06 09:24:20;;;;;;;19.93;14.33;;;;;;;3.01;57.20;96753.34;5113432;28;20208;-52
2022/03/06 09:26:47;;;;;;;19.63;14.17;;;;;;;3.37;55.81;96747.56;5111613;28;20640;-52
2022/03/06 09:29:14;;;;;;;21.03;15.10;;;;;;;3.69;55.48;96746.38;5112798;28;20231;-51
2022/03/06 09:31:44;;;;;;;18.13;14.80;;;;;;;3.91;54.07;96745.81;5112649;28;20761;-50
2022/03/06 09:34:11;;;;;;;19.00;14.57;;;;;;;4.47;52.88;96749.91;5112916;28;20532;-50
2022/03/06 09:36:38;;;;;;;20.40;15.47;;;;;;;4.57;52.11;96743.09;5113751;28;20556;-52
2022/03/06 09:39:05;;;;;;;18.93;14.57;;;;;;;4.27;52.41;96753.03;5114221;28;20593;-52
2022/03/06 09:41:32;;;;;;;18.40;14.97;;;;;;;4.25;52.56;96754.94;5113445;28;20219;-51
2022/03/06 09:43:59;;;;;;;18.70;14.30;;;;;;;4.50;52.42;96752.31;5112457;28;20589;-51
2022/03/06 09:46:25;;;;;;;20.50;15.80;;;;;;;5.03;52.17;96759.13;5112924;28;20197;-52
2022/03/06 09:48:53;;;;;;;19.63;13.97;;;;;;;5.37;50.34;96755.00;5112838;28;20621;-52
2022/03/06 09:51:20;;;;;;;18.03;14.67;;;;;;;5.34;49.92;96763.94;5112178;28;20208;-51
2022/03/06 09:53:49;;;;;;;18.83;14.87;;;;;;;5.57;49.55;96762.28;5111908;28;20193;-51
2022/03/06 09:56:16;;;;;;;20.73;14.80;;;;;;;5.67;48.98;96771.16;5112643;28;20224;-51
2022/03/06 09:58:42;;;;;;;16.80;14.03;;;;;;;5.81;49.67;96762.31;5113160;28;20228;-52
2022/03/06 10:01:09;;;;;;;16.80;14.10;;;;;;;5.65;48.83;96765.19;5112820;28;20692;-50
2022/03/06 10:03:36;;;;;;;19.43;15.10;;;;;;;6.00;48.04;96763.53;5114164;28;20196;-50
2022/03/06 10:06:07;;;;;;;19.17;14.97;;;;;;;6.38;47.90;96762.47;5113665;28;20236;-51
2022/03/06 10:08:36;;;;;;;19.27;15.17;;;;;;;6.29;47.50;96757.91;5112738;28;20439;-51
2022/03/06 10:11:07;;;;;;;17.20;14.07;;;;;;;6.70;47.80;96758.25;5113094;28;20202;-52
2022/03/06 10:13:35;;;;;;;17.97;15.77;;;;;;;7.11;46.79;96762.13;5113922;28;20208;-51
2022/03/06 10:16:11;;;;;;;20.07;15.83;;;;;;;7.12;47.09;96764.63;5116041;28;20209;-51
2022/03/06 10:18:40;;;;;;;16.97;14.40;;;;;;;7.23;45.50;96761.16;5113114;28;20228;-51
2022/03/06 10:21:22;;;;;;;18.83;15.67;;;;;;;7.36;44.54;96764.53;5113577;28;20209;-51
2022/03/06 10:23:51;;;;;;;19.13;15.67;;;;;;;7.34;44.45;96755.91;5119352;28;20265;-52
2022/03/06 10:26:19;;;;;;;19.03;14.37;;;;;;;7.15;43.94;96766.22;5116310;28;20569;-53
2022/03/06 10:28:54;;;;;;;18.70;16.47;;;;;;;7.49;44.61;96766.06;5113633;28;20278;-52
2022/03/06 10:31:23;;;;;;;20.23;16.03;;;;;;;7.54;44.98;96763.09;5114222;28;20212;-51
2022/03/06 10:34:03;;;;;;;20.20;16.10;;;;;;;6.90;46.76;96762.84;5114241;28;20212;-53
2022/03/06 10:36:35;;;;;;;18.20;16.30;;;;;;;7.18;45.59;96773.84;5113831;28;20208;-52
2022/03/06 10:39:05;;;;;;;20.20;16.30;;;;;;;7.15;44.25;96763.59;5113848;28;20205;-51
2022/03/06 10:41:37;;;;;;;17.43;15.40;;;;;;;7.11;44.40;96762.13;5112435;28;20212;-52
2022/03/06 10:44:05;;;;;;;17.77;15.03;;;;;;;7.27;45.11;96755.56;5114020;28;20216;-53
2022/03/06 10:46:33;;;;;;;19.20;15.63;;;;;;;7.24;44.43;96757.59;5113552;28;20216;-55
2022/03/06 10:49:01;;;;;;;18.50;15.90;;;;;;;7.33;44.81;96747.19;5112745;28;20193;-54
2022/03/06 10:51:29;;;;;;;20.47;15.97;;;;;;;6.95;43.99;96746.69;5114828;28;20258;-53
2022/03/06 10:53:58;;;;;;;18.00;15.60;;;;;;;7.49;44.23;96757.34;5115076;28;20209;-52
2022/03/06 10:56:26;;;;;;;19.77;15.40;;;;;;;7.73;43.74;96747.47;5111767;28;20246;-52
2022/03/06 10:58:54;;;;;;;19.87;16.00;;;;;;;8.39;44.41;96750.91;5113448;28;20221;-53
2022/03/06 11:01:21;;;;;;;19.83;15.67;;;;;;;9.02;42.58;96752.56;5115581;28;20251;-53
2022/03/06 11:03:49;;;;;;;18.30;14.97;;;;;;;9.03;42.09;96745.50;5114083;28;20201;-51
2022/03/06 11:06:16;;;;;;;17.20;14.63;;;;;;;9.02;40.20;96749.09;5113277;28;20229;-53
2022/03/06 11:08:43;;;;;;;18.63;15.77;;;;;;;9.16;40.06;96754.84;5114332;28;20261;-53
2022/03/06 11:11:12;;;;;;;18.10;15.97;;;;;;;9.52;39.50;96750.84;5114309;28;20213;-53
2022/03/06 11:13:39;;;;;;;18.80;15.70;;;;;;;9.78;39.03;96745.88;5114757;28;20215;-53
2022/03/06 11:16:06;;;;;;;18.17;15.40;;;;;;;9.62;38.59;96750.84;5114333;28;20296;-54
2022/03/06 11:18:34;;;;;;;18.23;16.07;;;;;;;9.65;38.61;96746.16;5112620;28;20221;-53
2022/03/06 11:21:02;;;;;;;17.83;15.70;;;;;;;10.29;38.27;96741.28;5122695;28;20243;-51
2022/03/06 11:23:34;;;;;;;18.63;15.57;;;;;;;10.46;37.65;96742.38;5114853;28;20266;-54
2022/03/06 11:26:09;;;;;;;16.43;14.73;;;;;;;10.76;38.57;96736.09;5119040;28;20528;-53